^^
Meteo Knjazevac Station Historical Data
Daily Summary for March 20, 2021 Units:  Both    English   Metric
Daily Weekly Monthly Yearly Custom
  High: Low: Average:
Temperature: 41 °F /  5 °C 34.9 °F /  1.6 °C 37.9 °F /  3.3 °C
Dew Point: 37.2 °F /  2.9 °C 28.9 °F /  -1.7 °C 33.4 °F /  0.8 °C
Humidity: 91% 72% 84%
Wind Speed: 15mph /  24.1km/h - 6.1mph /  9.8km/h
Wind Gust: 22mph /  35.4km/h - -
Wind- - WSW
Pressure: 30.16 in /  1021.2 hPa 29.97 in /  1014.8 hPa -
Precipitation: 0.00 in /  0 mm    
Historical Graphs
 
 
Tabular Data for March 20, 2021
Time Temperature Dew Point Pressure Wind Wind Speed Wind Gust Humidity Rainfall Rate (Hourly) solar Conditions
00:00 38.3 °F /  3.5 °C 35.1 °F /  1.7 °C 29.98in /  1015.1hPa WSW 9mph /  14.5km/h 14mph /  22.5km/h 88% 0.00in /  0mm 0 W/m2
00:10 38.4 °F /  3.6 °C 35.2 °F /  1.8 °C 29.98in /  1015.1hPa SW 8mph /  12.9km/h 14mph /  22.5km/h 88% 0.00in /  0mm 0 W/m2
00:20 38.3 °F /  3.5 °C 35.1 °F /  1.7 °C 29.98in /  1015.1hPa SW 9mph /  14.5km/h 13mph /  20.9km/h 88% 0.00in /  0mm 0 W/m2
00:30 38.3 °F /  3.5 °C 35.1 °F /  1.7 °C 29.98in /  1015.1hPa WSW 6mph /  9.7km/h 12mph /  19.3km/h 88% 0.00in /  0mm 0 W/m2
00:40 38.1 °F /  3.4 °C 34.9 °F /  1.6 °C 29.98in /  1015.1hPa WSW 6mph /  9.7km/h 13mph /  20.9km/h 88% 0.00in /  0mm 0 W/m2
00:50 38.2 °F /  3.4 °C 34.9 °F /  1.6 °C 29.98in /  1015.1hPa SW 7mph /  11.3km/h 10mph /  16.1km/h 88% 0.00in /  0mm 0 W/m2
01:00 38.3 °F /  3.5 °C 35.1 °F /  1.7 °C 29.97in /  1014.8hPa SW 8mph /  12.9km/h 13mph /  20.9km/h 88% 0.00in /  0mm 0 W/m2
01:10 38.3 °F /  3.5 °C 35.1 °F /  1.7 °C 29.98in /  1015.1hPa WSW 9mph /  14.5km/h 15mph /  24.1km/h 88% 0.00in /  0mm 0 W/m2
01:20 38.5 °F /  3.6 °C 35.2 °F /  1.8 °C 29.98in /  1015.1hPa WSW 8mph /  12.9km/h 14mph /  22.5km/h 88% 0.00in /  0mm 0 W/m2
01:30 38.7 °F /  3.7 °C 35.4 °F /  1.9 °C 29.98in /  1015.1hPa WSW 7mph /  11.3km/h 15mph /  24.1km/h 88% 0.00in /  0mm 0 W/m2
01:40 38.5 °F /  3.6 °C 35.2 °F /  1.8 °C 29.98in /  1015.1hPa WSW 6mph /  9.7km/h 9mph /  14.5km/h 88% 0.00in /  0mm 0 W/m2
01:50 38.5 °F /  3.6 °C 35.2 °F /  1.8 °C 29.99in /  1015.5hPa WSW 6mph /  9.7km/h 10mph /  16.1km/h 88% 0.00in /  0mm 0 W/m2
02:00 38.3 °F /  3.5 °C 35.1 °F /  1.7 °C 29.99in /  1015.5hPa WSW 6mph /  9.7km/h 10mph /  16.1km/h 88% 0.00in /  0mm 0 W/m2
02:10 38.3 °F /  3.5 °C 35.1 °F /  1.7 °C 29.99in /  1015.5hPa WSW 7mph /  11.3km/h 9mph /  14.5km/h 88% 0.00in /  0mm 0 W/m2
02:20 38.3 °F /  3.5 °C 35.1 °F /  1.7 °C 29.99in /  1015.5hPa WSW 5mph /  8km/h 9mph /  14.5km/h 88% 0.00in /  0mm 0 W/m2
02:30 38.3 °F /  3.5 °C 35.1 °F /  1.7 °C 29.99in /  1015.5hPa WSW 7mph /  11.3km/h 11mph /  17.7km/h 88% 0.00in /  0mm 0 W/m2
02:40 38.3 °F /  3.5 °C 35.1 °F /  1.7 °C 29.99in /  1015.5hPa WSW 7mph /  11.3km/h 10mph /  16.1km/h 88% 0.00in /  0mm 0 W/m2
02:50 38.1 °F /  3.4 °C 35.2 °F /  1.8 °C 29.98in /  1015.1hPa WSW 5mph /  8km/h 10mph /  16.1km/h 89% 0.00in /  0mm 0 W/m2
03:00 38.1 °F /  3.4 °C 35.2 °F /  1.8 °C 29.98in /  1015.1hPa SW 6mph /  9.7km/h 9mph /  14.5km/h 89% 0.00in /  0mm 0 W/m2
03:10 38.1 °F /  3.4 °C 35.4 °F /  1.9 °C 29.98in /  1015.1hPa WSW 6mph /  9.7km/h 9mph /  14.5km/h 90% 0.00in /  0mm 0 W/m2
03:20 38.3 °F /  3.5 °C 35.6 °F /  2 °C 29.98in /  1015.1hPa WSW 6mph /  9.7km/h 12mph /  19.3km/h 90% 0.00in /  0mm 0 W/m2
03:30 38.5 °F /  3.6 °C 35.5 °F /  1.9 °C 29.97in /  1014.8hPa WSW 6mph /  9.7km/h 10mph /  16.1km/h 89% 0.00in /  0mm 0 W/m2
03:40 38.7 °F /  3.7 °C 35.7 °F /  2.1 °C 29.97in /  1014.8hPa WSW 7mph /  11.3km/h 13mph /  20.9km/h 89% 0.00in /  0mm 0 W/m2
03:50 38.5 °F /  3.6 °C 35.5 °F /  1.9 °C 29.97in /  1014.8hPa SW 8mph /  12.9km/h 14mph /  22.5km/h 89% 0.00in /  0mm 0 W/m2
04:00 38.8 °F /  3.8 °C 35.9 °F /  2.2 °C 29.98in /  1015.1hPa WSW 10mph /  16.1km/h 17mph /  27.4km/h 89% 0.00in /  0mm 0 W/m2
04:10 38.8 °F /  3.8 °C 36.2 °F /  2.3 °C 29.98in /  1015.1hPa WSW 7mph /  11.3km/h 18mph /  29km/h 90% 0.00in /  0mm 0 W/m2
04:20 38.8 °F /  3.8 °C 36.2 °F /  2.3 °C 29.98in /  1015.1hPa WSW 7mph /  11.3km/h 12mph /  19.3km/h 90% 0.00in /  0mm 0 W/m2
04:30 38.7 °F /  3.7 °C 36 °F /  2.2 °C 29.98in /  1015.1hPa WSW 6mph /  9.7km/h 12mph /  19.3km/h 90% 0.00in /  0mm 0 W/m2
04:40 38.7 °F /  3.7 °C 36 °F /  2.2 °C 29.98in /  1015.1hPa WSW 7mph /  11.3km/h 12mph /  19.3km/h 90% 0.00in /  0mm 0 W/m2
04:50 38.8 °F /  3.8 °C 36.2 °F /  2.3 °C 29.98in /  1015.1hPa WSW 6mph /  9.7km/h 13mph /  20.9km/h 90% 0.00in /  0mm 0 W/m2
05:00 38.7 °F /  3.7 °C 36 °F /  2.2 °C 29.98in /  1015.1hPa WSW 6mph /  9.7km/h 12mph /  19.3km/h 90% 0.00in /  0mm 0 W/m2
05:10 38.7 °F /  3.7 °C 36 °F /  2.2 °C 29.98in /  1015.1hPa WSW 7mph /  11.3km/h 10mph /  16.1km/h 90% 0.00in /  0mm 0 W/m2
05:20 38.6 °F /  3.7 °C 36 °F /  2.2 °C 29.99in /  1015.5hPa WSW 7mph /  11.3km/h 12mph /  19.3km/h 90% 0.00in /  0mm 0 W/m2
05:30 38.5 °F /  3.6 °C 35.8 °F /  2.1 °C 29.99in /  1015.5hPa WSW 6mph /  9.7km/h 12mph /  19.3km/h 90% 0.00in /  0mm 0 W/m2
05:40 38.5 °F /  3.6 °C 35.8 °F /  2.1 °C 29.99in /  1015.5hPa WSW 7mph /  11.3km/h 13mph /  20.9km/h 90% 0.00in /  0mm 0 W/m2
05:50 38.6 °F /  3.7 °C 36 °F /  2.2 °C 29.99in /  1015.5hPa West 8mph /  12.9km/h 12mph /  19.3km/h 90% 0.00in /  0mm 0 W/m2
06:00 38.5 °F /  3.6 °C 36.1 °F /  2.3 °C 29.99in /  1015.5hPa WSW 3mph /  4.8km/h 9mph /  14.5km/h 91% 0.00in /  0mm 0 W/m2
06:10 38.5 °F /  3.6 °C 36.1 °F /  2.3 °C 30.00in /  1015.8hPa WSW 5mph /  8km/h 8mph /  12.9km/h 91% 0.00in /  0mm 0 W/m2
06:20 38.3 °F /  3.5 °C 35.9 °F /  2.2 °C 30.00in /  1015.8hPa West 6mph /  9.7km/h 12mph /  19.3km/h 91% 0.00in /  0mm 0 W/m2
06:30 38.3 °F /  3.5 °C 35.9 °F /  2.2 °C 30.00in /  1015.8hPa West 5mph /  8km/h 10mph /  16.1km/h 91% 0.00in /  0mm 0 W/m2
06:40 38.3 °F /  3.5 °C 35.9 °F /  2.2 °C 30.00in /  1015.8hPa West 7mph /  11.3km/h 12mph /  19.3km/h 91% 0.00in /  0mm 0 W/m2
06:50 38.3 °F /  3.5 °C 35.9 °F /  2.2 °C 30.00in /  1015.8hPa West 9mph /  14.5km/h 14mph /  22.5km/h 91% 0.00in /  0mm 0 W/m2
07:00 38.3 °F /  3.5 °C 35.6 °F /  2 °C 30.00in /  1015.8hPa WSW 10mph /  16.1km/h 16mph /  25.7km/h 90% 0.00in /  0mm 3 W/m2
07:10 38.5 °F /  3.6 °C 35.8 °F /  2.1 °C 30.00in /  1015.8hPa WSW 9mph /  14.5km/h 17mph /  27.4km/h 90% 0.00in /  0mm 7 W/m2
07:20 38.3 °F /  3.5 °C 35.6 °F /  2 °C 30.01in /  1016.1hPa West 7mph /  11.3km/h 14mph /  22.5km/h 90% 0.00in /  0mm 10 W/m2
07:30 38.5 °F /  3.6 °C 35.5 °F /  1.9 °C 30.01in /  1016.1hPa West 10mph /  16.1km/h 15mph /  24.1km/h 89% 0.00in /  0mm 19 W/m2
07:40 38.3 °F /  3.5 °C 35.4 °F /  1.9 °C 30.02in /  1016.5hPa West 8mph /  12.9km/h 13mph /  20.9km/h 89% 0.00in /  0mm 25 W/m2
07:50 38.3 °F /  3.5 °C 35.3 °F /  1.8 °C 30.01in /  1016.1hPa West 8mph /  12.9km/h 15mph /  24.1km/h 89% 0.00in /  0mm 31 W/m2
08:00 38.1 °F /  3.4 °C 35.2 °F /  1.8 °C 30.01in /  1016.1hPa West 9mph /  14.5km/h 16mph /  25.7km/h 89% 0.00in /  0mm 35 W/m2
08:10 37.9 °F /  3.3 °C 35.3 °F /  1.8 °C 30.01in /  1016.1hPa West 8mph /  12.9km/h 14mph /  22.5km/h 90% 0.00in /  0mm 40 W/m2
08:20 37.9 °F /  3.3 °C 35.3 °F /  1.8 °C 30.01in /  1016.1hPa West 8mph /  12.9km/h 14mph /  22.5km/h 90% 0.00in /  0mm 50 W/m2
08:30 38.3 °F /  3.5 °C 35.6 °F /  2 °C 30.02in /  1016.5hPa West 12mph /  19.3km/h 22mph /  35.4km/h 90% 0.00in /  0mm 50 W/m2
08:40 38.5 °F /  3.6 °C 35.8 °F /  2.1 °C 30.01in /  1016.1hPa West 15mph /  24.1km/h 22mph /  35.4km/h 90% 0.00in /  0mm 82 W/m2
08:50 38.8 °F /  3.8 °C 35.9 °F /  2.2 °C 30.02in /  1016.5hPa West 10mph /  16.1km/h 22mph /  35.4km/h 89% 0.00in /  0mm 90 W/m2
09:00 39.6 °F /  4.2 °C 36.3 °F /  2.4 °C 30.02in /  1016.5hPa West 10mph /  16.1km/h 17mph /  27.4km/h 88% 0.00in /  0mm 186 W/m2
09:10 40.5 °F /  4.7 °C 37.2 °F /  2.9 °C 30.02in /  1016.5hPa WSW 8mph /  12.9km/h 18mph /  29km/h 88% 0.00in /  0mm 203 W/m2
09:20 41 °F /  5 °C 36.8 °F /  2.7 °C 30.03in /  1016.8hPa West 9mph /  14.5km/h 16mph /  25.7km/h 85% 0.00in /  0mm 112 W/m2
09:30 40.5 °F /  4.7 °C 36.3 °F /  2.4 °C 30.03in /  1016.8hPa WNW 6mph /  9.7km/h 11mph /  17.7km/h 85% 0.00in /  0mm 83 W/m2
09:40 40.3 °F /  4.6 °C 36.4 °F /  2.4 °C 30.03in /  1016.8hPa WNW 5mph /  8km/h 12mph /  19.3km/h 86% 0.00in /  0mm 100 W/m2
09:50 40.3 °F /  4.6 °C 36.1 °F /  2.3 °C 30.03in /  1016.8hPa West 7mph /  11.3km/h 14mph /  22.5km/h 85% 0.00in /  0mm 99 W/m2
10:00 40.1 °F /  4.5 °C 36 °F /  2.2 °C 30.04in /  1017.2hPa WNW 7mph /  11.3km/h 14mph /  22.5km/h 85% 0.00in /  0mm 78 W/m2
10:10 40.1 °F /  4.5 °C 36 °F /  2.2 °C 30.04in /  1017.2hPa West 7mph /  11.3km/h 15mph /  24.1km/h 85% 0.00in /  0mm 71 W/m2
10:20 40.1 °F /  4.5 °C 36 °F /  2.2 °C 30.04in /  1017.2hPa West 5mph /  8km/h 12mph /  19.3km/h 85% 0.00in /  0mm 95 W/m2
10:30 40.1 °F /  4.5 °C 36 °F /  2.2 °C 30.04in /  1017.2hPa WSW 5mph /  8km/h 11mph /  17.7km/h 85% 0.00in /  0mm 118 W/m2
10:40 40.1 °F /  4.5 °C 36.2 °F /  2.3 °C 30.03in /  1016.8hPa West 5mph /  8km/h 15mph /  24.1km/h 86% 0.00in /  0mm 126 W/m2
10:50 40.1 °F /  4.5 °C 36 °F /  2.2 °C 30.04in /  1017.2hPa West 7mph /  11.3km/h 14mph /  22.5km/h 85% 0.00in /  0mm 112 W/m2
11:00 40.1 °F /  4.5 °C 36 °F /  2.2 °C 30.04in /  1017.2hPa West 9mph /  14.5km/h 15mph /  24.1km/h 85% 0.00in /  0mm 102 W/m2
11:10 39.9 °F /  4.4 °C 35.8 °F /  2.1 °C 30.04in /  1017.2hPa West 7mph /  11.3km/h 17mph /  27.4km/h 85% 0.00in /  0mm 131 W/m2
11:20 39.9 °F /  4.4 °C 36.1 °F /  2.3 °C 30.04in /  1017.2hPa WSW 6mph /  9.7km/h 9mph /  14.5km/h 86% 0.00in /  0mm 99 W/m2
11:30 40.1 °F /  4.5 °C 36 °F /  2.2 °C 30.04in /  1017.2hPa WSW 8mph /  12.9km/h 16mph /  25.7km/h 85% 0.00in /  0mm 257 W/m2
11:40 40.3 °F /  4.6 °C 36.1 °F /  2.3 °C 30.03in /  1016.8hPa WSW 7mph /  11.3km/h 18mph /  29km/h 85% 0.00in /  0mm 143 W/m2
11:50 40.5 °F /  4.7 °C 36.3 °F /  2.4 °C 30.03in /  1016.8hPa WSW 7mph /  11.3km/h 14mph /  22.5km/h 85% 0.00in /  0mm 211 W/m2
12:00 40.5 °F /  4.7 °C 36.3 °F /  2.4 °C 30.03in /  1016.8hPa WSW 7mph /  11.3km/h 13mph /  20.9km/h 85% 0.00in /  0mm 170 W/m2
12:10 40.5 °F /  4.7 °C 36.6 °F /  2.6 °C 30.04in /  1017.2hPa WSW 8mph /  12.9km/h 14mph /  22.5km/h 86% 0.00in /  0mm 196 W/m2
12:20 40.3 °F /  4.6 °C 35.8 °F /  2.1 °C 30.04in /  1017.2hPa WSW 9mph /  14.5km/h 15mph /  24.1km/h 84% 0.00in /  0mm 50 W/m2
12:30 39.9 °F /  4.4 °C 35.5 °F /  1.9 °C 30.04in /  1017.2hPa WSW 10mph /  16.1km/h 16mph /  25.7km/h 84% 0.00in /  0mm 39 W/m2
12:40 39.2 °F /  4 °C 35.4 °F /  1.9 °C 30.04in /  1017.2hPa West 9mph /  14.5km/h 17mph /  27.4km/h 86% 0.00in /  0mm 60 W/m2
12:50 38.8 °F /  3.8 °C 35.9 °F /  2.2 °C 30.04in /  1017.2hPa WSW 7mph /  11.3km/h 11mph /  17.7km/h 89% 0.00in /  0mm 73 W/m2
13:00 39 °F /  3.9 °C 36.3 °F /  2.4 °C 30.04in /  1017.2hPa WSW 5mph /  8km/h 9mph /  14.5km/h 90% 0.00in /  0mm 231 W/m2
13:10 39.7 °F /  4.3 °C 36.5 °F /  2.5 °C 30.05in /  1017.5hPa WSW 3mph /  4.8km/h 8mph /  12.9km/h 88% 0.00in /  0mm 115 W/m2
13:20 39.7 °F /  4.3 °C 34.4 °F /  1.3 °C 30.05in /  1017.5hPa West 7mph /  11.3km/h 14mph /  22.5km/h 81% 0.00in /  0mm 109 W/m2
13:30 39.7 °F /  4.3 °C 33.4 °F /  0.8 °C 30.06in /  1017.8hPa WNW 10mph /  16.1km/h 16mph /  25.7km/h 78% 0.00in /  0mm 96 W/m2
13:40 39.7 °F /  4.3 °C 33.4 °F /  0.8 °C 30.06in /  1017.8hPa WNW 5mph /  8km/h 11mph /  17.7km/h 78% 0.00in /  0mm 199 W/m2
13:50 40.6 °F /  4.8 °C 32.7 °F /  0.4 °C 30.06in /  1017.8hPa WNW 6mph /  9.7km/h 12mph /  19.3km/h 73% 0.00in /  0mm 190 W/m2
14:00 41 °F /  5 °C 32.7 °F /  0.4 °C 30.06in /  1017.8hPa West 8mph /  12.9km/h 13mph /  20.9km/h 72% 0.00in /  0mm 97 W/m2
14:10 40.8 °F /  4.9 °C 32.8 °F /  0.4 °C 30.06in /  1017.8hPa West 8mph /  12.9km/h 14mph /  22.5km/h 73% 0.00in /  0mm 70 W/m2
14:20 40.3 °F /  4.6 °C 32.6 °F /  0.3 °C 30.06in /  1017.8hPa West 9mph /  14.5km/h 20mph /  32.2km/h 74% 0.00in /  0mm 104 W/m2
14:30 39.9 °F /  4.4 °C 32.6 °F /  0.3 °C 30.06in /  1017.8hPa West 8mph /  12.9km/h 17mph /  27.4km/h 75% 0.00in /  0mm 36 W/m2
14:40 39.4 °F /  4.1 °C 32.1 °F /  0.1 °C 30.06in /  1017.8hPa West 8mph /  12.9km/h 17mph /  27.4km/h 75% 0.00in /  0mm 40 W/m2
14:50 39.2 °F /  4 °C 32.6 °F /  0.3 °C 30.07in /  1018.2hPa West 6mph /  9.7km/h 10mph /  16.1km/h 77% 0.00in /  0mm 27 W/m2
15:00 38.8 °F /  3.8 °C 32.6 °F /  0.3 °C 30.07in /  1018.2hPa West 8mph /  12.9km/h 12mph /  19.3km/h 78% 0.00in /  0mm 15 W/m2
15:10 38.8 °F /  3.8 °C 32.6 °F /  0.3 °C 30.08in /  1018.5hPa WNW 2mph /  3.2km/h 12mph /  19.3km/h 78% 0.00in /  0mm 17 W/m2
15:20 38.7 °F /  3.7 °C 32.4 °F /  0.2 °C 30.08in /  1018.5hPa WNW 2mph /  3.2km/h 9mph /  14.5km/h 78% 0.00in /  0mm 27 W/m2
15:30 38.5 °F /  3.6 °C 32.2 °F /  0.1 °C 30.08in /  1018.5hPa WSW 6mph /  9.7km/h 8mph /  12.9km/h 78% 0.00in /  0mm 13 W/m2
15:40 38.1 °F /  3.4 °C 32.2 °F /  0.1 °C 30.08in /  1018.5hPa WSW 3mph /  4.8km/h 8mph /  12.9km/h 79% 0.00in /  0mm 15 W/m2
15:50 37.7 °F /  3.2 °C 31.5 °F /  -0.3 °C 30.08in /  1018.5hPa West 3mph /  4.8km/h 10mph /  16.1km/h 78% 0.00in /  0mm 8 W/m2
16:00 37.4 °F /  3 °C 31.2 °F /  -0.4 °C 30.09in /  1018.8hPa West 3mph /  4.8km/h 12mph /  19.3km/h 78% 0.00in /  0mm 0 W/m2
16:10 37 °F /  2.8 °C 30.8 °F /  -0.7 °C 30.09in /  1018.8hPa WSW 2mph /  3.2km/h 10mph /  16.1km/h 78% 0.00in /  0mm 0 W/m2
16:20 36.7 °F /  2.6 °C 30.5 °F /  -0.8 °C 30.09in /  1018.8hPa SW 2mph /  3.2km/h 6mph /  9.7km/h 78% 0.00in /  0mm 0 W/m2
16:30 36.5 °F /  2.5 °C 30.6 °F /  -0.8 °C 30.10in /  1019.2hPa WSW 1mph /  1.6km/h 4mph /  6.4km/h 79% 0.00in /  0mm 0 W/m2
16:40 36.1 °F /  2.3 °C 30.3 °F /  -0.9 °C 30.10in /  1019.2hPa NW 2mph /  3.2km/h 5mph /  8km/h 79% 0.00in /  0mm 0 W/m2
16:50 35.8 °F /  2.1 °C 29.9 °F /  -1.2 °C 30.10in /  1019.2hPa WSW 2mph /  3.2km/h 5mph /  8km/h 79% 0.00in /  0mm 0 W/m2
17:00 35.6 °F /  2 °C 29.7 °F /  -1.3 °C 30.11in /  1019.5hPa Calm   7mph /  11.3km/h 79% 0.00in /  0mm 0 W/m2
17:10 35.4 °F /  1.9 °C 29.5 °F /  -1.4 °C 30.11in /  1019.5hPa West 1mph /  1.6km/h 7mph /  11.3km/h 79% 0.00in /  0mm 0 W/m2
17:20 35.1 °F /  1.7 °C 29.5 °F /  -1.4 °C 30.12in /  1019.9hPa WSW 3mph /  4.8km/h 8mph /  12.9km/h 80% 0.00in /  0mm 0 W/m2
17:30 34.9 °F /  1.6 °C 29.3 °F /  -1.5 °C 30.12in /  1019.9hPa West 2mph /  3.2km/h 7mph /  11.3km/h 80% 0.00in /  0mm 0 W/m2
17:40 34.9 °F /  1.6 °C 29.3 °F /  -1.5 °C 30.11in /  1019.5hPa WSW 6mph /  9.7km/h 8mph /  12.9km/h 80% 0.00in /  0mm 0 W/m2
17:50 35.1 °F /  1.7 °C 29.5 °F /  -1.4 °C 30.12in /  1019.9hPa WSW 5mph /  8km/h 11mph /  17.7km/h 80% 0.00in /  0mm 0 W/m2
18:00 35.1 °F /  1.7 °C 29.5 °F /  -1.4 °C 30.12in /  1019.9hPa WSW 2mph /  3.2km/h 7mph /  11.3km/h 80% 0.00in /  0mm 0 W/m2
18:10 35.2 °F /  1.8 °C 29.7 °F /  -1.3 °C 30.12in /  1019.9hPa SW 5mph /  8km/h 8mph /  12.9km/h 80% 0.00in /  0mm 0 W/m2
18:20 35.3 °F /  1.8 °C 29.7 °F /  -1.3 °C 30.11in /  1019.5hPa SW 6mph /  9.7km/h 7mph /  11.3km/h 80% 0.00in /  0mm 0 W/m2
18:30 35.4 °F /  1.9 °C 29.9 °F /  -1.2 °C 30.12in /  1019.9hPa WSW 3mph /  4.8km/h 8mph /  12.9km/h 80% 0.00in /  0mm 0 W/m2
18:40 35.6 °F /  2 °C 29.7 °F /  -1.3 °C 30.12in /  1019.9hPa WSW 3mph /  4.8km/h 7mph /  11.3km/h 79% 0.00in /  0mm 0 W/m2
18:50 35.6 °F /  2 °C 29.7 °F /  -1.3 °C 30.12in /  1019.9hPa SW 3mph /  4.8km/h 7mph /  11.3km/h 79% 0.00in /  0mm 0 W/m2
19:00 35.6 °F /  2 °C 29.7 °F /  -1.3 °C 30.13in /  1020.2hPa SW 2mph /  3.2km/h 8mph /  12.9km/h 79% 0.00in /  0mm 0 W/m2
19:10 35.8 °F /  2.1 °C 29.9 °F /  -1.2 °C 30.13in /  1020.2hPa WSW 7mph /  11.3km/h 9mph /  14.5km/h 79% 0.00in /  0mm 0 W/m2
19:20 36 °F /  2.2 °C 30.1 °F /  -1.1 °C 30.13in /  1020.2hPa WSW 3mph /  4.8km/h 7mph /  11.3km/h 79% 0.00in /  0mm 0 W/m2
19:30 36 °F /  2.2 °C 30.1 °F /  -1.1 °C 30.13in /  1020.2hPa SW 1mph /  1.6km/h 6mph /  9.7km/h 79% 0.00in /  0mm 0 W/m2
19:40 36 °F /  2.2 °C 30.1 °F /  -1.1 °C 30.13in /  1020.2hPa SW 6mph /  9.7km/h 7mph /  11.3km/h 79% 0.00in /  0mm 0 W/m2
19:50 35.8 °F /  2.1 °C 29.9 °F /  -1.2 °C 30.13in /  1020.2hPa WSW 6mph /  9.7km/h 8mph /  12.9km/h 79% 0.00in /  0mm 0 W/m2
20:00 35.8 °F /  2.1 °C 30.2 °F /  -1 °C 30.13in /  1020.2hPa WSW 5mph /  8km/h 8mph /  12.9km/h 80% 0.00in /  0mm 0 W/m2
20:10 35.8 °F /  2.1 °C 30.2 °F /  -1 °C 30.13in /  1020.2hPa WSW 3mph /  4.8km/h 6mph /  9.7km/h 80% 0.00in /  0mm 0 W/m2
20:20 35.8 °F /  2.1 °C 30.2 °F /  -1 °C 30.14in /  1020.5hPa WSW 3mph /  4.8km/h 8mph /  12.9km/h 80% 0.00in /  0mm 0 W/m2
20:30 35.8 °F /  2.1 °C 30.2 °F /  -1 °C 30.14in /  1020.5hPa WSW 6mph /  9.7km/h 8mph /  12.9km/h 80% 0.00in /  0mm 0 W/m2
20:40 35.8 °F /  2.1 °C 29.9 °F /  -1.2 °C 30.14in /  1020.5hPa WSW 5mph /  8km/h 9mph /  14.5km/h 79% 0.00in /  0mm 0 W/m2
20:50 36 °F /  2.2 °C 30.1 °F /  -1.1 °C 30.14in /  1020.5hPa WSW 2mph /  3.2km/h 7mph /  11.3km/h 79% 0.00in /  0mm 0 W/m2
21:00 36 °F /  2.2 °C 30.1 °F /  -1.1 °C 30.14in /  1020.5hPa West 6mph /  9.7km/h 10mph /  16.1km/h 79% 0.00in /  0mm 0 W/m2
21:10 35.9 °F /  2.2 °C 30 °F /  -1.1 °C 30.14in /  1020.5hPa West 3mph /  4.8km/h 10mph /  16.1km/h 79% 0.00in /  0mm 0 W/m2
21:20 35.8 °F /  2.1 °C 29.9 °F /  -1.2 °C 30.14in /  1020.5hPa West 5mph /  8km/h 9mph /  14.5km/h 79% 0.00in /  0mm 0 W/m2
21:30 35.8 °F /  2.1 °C 29.9 °F /  -1.2 °C 30.15in /  1020.9hPa WSW 5mph /  8km/h 8mph /  12.9km/h 79% 0.00in /  0mm 0 W/m2
21:40 35.6 °F /  2 °C 29.7 °F /  -1.3 °C 30.15in /  1020.9hPa WSW 6mph /  9.7km/h 8mph /  12.9km/h 79% 0.00in /  0mm 0 W/m2
21:50 35.6 °F /  2 °C 29.7 °F /  -1.3 °C 30.15in /  1020.9hPa WSW 3mph /  4.8km/h 9mph /  14.5km/h 79% 0.00in /  0mm 0 W/m2
22:00 35.6 °F /  2 °C 29.7 °F /  -1.3 °C 30.14in /  1020.5hPa WSW 3mph /  4.8km/h 8mph /  12.9km/h 79% 0.00in /  0mm 0 W/m2
22:10 35.4 °F /  1.9 °C 29.6 °F /  -1.3 °C 30.15in /  1020.9hPa West 3mph /  4.8km/h 8mph /  12.9km/h 79% 0.00in /  0mm 0 W/m2
22:20 35.2 °F /  1.8 °C 29.4 °F /  -1.4 °C 30.15in /  1020.9hPa WSW 3mph /  4.8km/h 5mph /  8km/h 79% 0.00in /  0mm 0 W/m2
22:30 35.2 °F /  1.8 °C 29 °F /  -1.7 °C 30.15in /  1020.9hPa WSW 6mph /  9.7km/h 9mph /  14.5km/h 78% 0.00in /  0mm 0 W/m2
22:40 35.1 °F /  1.7 °C 28.9 °F /  -1.7 °C 30.15in /  1020.9hPa WSW 5mph /  8km/h 11mph /  17.7km/h 78% 0.00in /  0mm 0 W/m2
22:50 35.1 °F /  1.7 °C 29.2 °F /  -1.6 °C 30.16in /  1021.2hPa West 7mph /  11.3km/h 11mph /  17.7km/h 79% 0.00in /  0mm 0 W/m2
23:00 35 °F /  1.7 °C 29.5 °F /  -1.4 °C 30.16in /  1021.2hPa WSW 6mph /  9.7km/h 11mph /  17.7km/h 80% 0.00in /  0mm 0 W/m2
23:10 35.1 °F /  1.7 °C 29.5 °F /  -1.4 °C 30.16in /  1021.2hPa WSW 7mph /  11.3km/h 13mph /  20.9km/h 80% 0.00in /  0mm 0 W/m2
23:20 35.1 °F /  1.7 °C 29.5 °F /  -1.4 °C 30.16in /  1021.2hPa WSW 9mph /  14.5km/h 13mph /  20.9km/h 80% 0.00in /  0mm 0 W/m2
23:30 35.1 °F /  1.7 °C 29.5 °F /  -1.4 °C 30.16in /  1021.2hPa West 6mph /  9.7km/h 11mph /  17.7km/h 80% 0.00in /  0mm 0 W/m2
23:40 35.2 °F /  1.8 °C 29.7 °F /  -1.3 °C 30.16in /  1021.2hPa WSW 6mph /  9.7km/h 13mph /  20.9km/h 80% 0.00in /  0mm 0 W/m2
23:50 35.2 °F /  1.8 °C 29.6 °F /  -1.3 °C 30.16in /  1021.2hPa WSW 6mph /  9.7km/h 11mph /  17.7km/h 80% 0.00in /  0mm 0 W/m2
Knjazevac, Serbia
Compliments of Weather Underground - 2 mb